メキシコシティ の空港の天気 - METARとTAF

メキシコ・シティ国際空港 ( MMMX / MEX ) - メキシコ メキシコシティ
飛行場実況気象(Metar)
観測時間02/20 08:43 CST (02/20 14:43 UTC)
風向・風速南南東 6m/s
視程10km以上
天気現象
なし
気温16℃
湿度42%
気圧1008.3hPa
METARMMMX 201443Z 16011KT 15SM SKC 16/03 A3030 NOSIG RMK SLP083 53018 961 SC SSE S W DSNT CI E
過去の天気等 Google飛行場航空写真 Wunderground天気予報

過去48時間のMETAR

飛行場予報(TAF)
発表時間: 2/20 05:39 CST (2/20 11:39 UTC)
予報対象時間: 20日6時 CST ~ 21日12時 CST
風向・風速南南東 5m/s
視程10km以上
全天の4割程度の雲 雲底高度 2,440m
全天の8割程度の雲 雲底高度 7,620m
20日12時 CST から
風向・風速南西 8m/s
視程10km以上
全天の4割程度の雲 雲底高度 910m
全天の8割程度の雲 雲底高度 7,620m
20日20時 CST から
風向・風速南西 3m/s
視程10km以上
全天の4割程度の雲 雲底高度 7,620m
21日4時 CST ~ 21日8時 CST に一時的に
視程1,610m
天気現象もや
全天の8割程度の雲 雲底高度 300m
21日10時 CST から
風向・風速北北東 4m/s
視程10km以上
全天の4割程度の雲 雲底高度 610m
TAF MMMX 201139Z 2012/2118 15010KT P6SM SCT080 BKN250 TX24/2021Z TN12/2012Z
FM201800 23015KT P6SM SCT030 BKN250
FM210200 23005KT P6SM SCT250
TEMPO 2110/2114 1SM BR BKN010
FM211600 03008KT P6SM SCT020